Time;durP1;ratioP1;P1;durP2;ratioP2;P2;SDS_P1;SDS_P2;PMS_P1;PMS_P2;Temp;Humidity;BMP_temperature;BMP_pressure;BME280_temperature;BME280_humidity;BME280_pressure;Samples;Min_cycle;Max_cycle;Signal;HPM_P1;HPM_P2
2023/02/12 00:00:32;;;;;;;8.93;5.80;;;7.30;99.90;;;;;;5114315;28;20039;-34
2023/02/12 00:02:58;;;;;;;8.05;5.70;;;7.30;99.90;;;;;;5114842;28;20023;-34
2023/02/12 00:05:23;;;;;;;10.48;5.88;;;7.40;99.90;;;;;;5115385;28;20024;-34
2023/02/12 00:07:49;;;;;;;9.07;5.53;;;7.70;99.90;;;;;;5112780;28;20322;-31
2023/02/12 00:10:15;;;;;;;9.35;5.57;;;7.90;99.90;;;;;;5114193;28;20024;-33
2023/02/12 00:12:41;;;;;;;7.90;5.07;;;7.90;99.90;;;;;;5114357;28;20473;-38
2023/02/12 00:15:07;;;;;;;8.30;5.45;;;7.90;99.90;;;;;;5114714;28;20538;-41
2023/02/12 00:17:32;;;;;;;8.82;5.40;;;7.90;99.90;;;;;;5115321;28;20035;-40
2023/02/12 00:19:58;;;;;;;7.82;5.18;;;7.80;99.90;;;;;;5112793;28;20032;-38
2023/02/12 00:22:24;;;;;;;8.95;5.35;;;7.80;99.90;;;;;;5114104;28;20024;-40
2023/02/12 00:24:49;;;;;;;9.75;5.18;;;7.70;99.90;;;;;;5113980;27;20022;-32
2023/02/12 00:27:15;;;;;;;9.00;5.50;;;7.60;99.90;;;;;;5114617;28;20030;-32
2023/02/12 00:29:40;;;;;;;9.50;5.72;;;7.60;99.90;;;;;;5115434;28;20019;-34
2023/02/12 00:32:06;;;;;;;8.45;5.50;;;7.50;99.90;;;;;;5115499;28;20057;-33
2023/02/12 00:34:32;;;;;;;8.98;5.20;;;7.50;99.90;;;;;;5114415;28;20031;-42
2023/02/12 00:36:58;;;;;;;7.93;5.30;;;7.40;99.90;;;;;;5113478;28;20023;-34
2023/02/12 00:39:23;;;;;;;7.80;4.97;;;7.40;99.90;;;;;;5114576;28;20023;-34
2023/02/12 00:41:49;;;;;;;7.30;4.90;;;7.40;99.90;;;;;;5113889;28;20123;-36
2023/02/12 00:44:14;;;;;;;7.70;4.95;;;7.40;99.90;;;;;;5114128;28;20019;-42
2023/02/12 00:46:40;;;;;;;8.27;5.28;;;7.40;99.90;;;;;;5113408;28;20065;-32
2023/02/12 00:49:06;;;;;;;7.55;5.13;;;7.40;99.90;;;;;;5113582;28;20027;-32
2023/02/12 00:51:31;;;;;;;8.15;5.43;;;7.40;99.90;;;;;;5113347;28;20027;-40
2023/02/12 00:53:57;;;;;;;7.78;5.00;;;7.30;99.90;;;;;;5113375;28;20031;-42
2023/02/12 00:56:22;;;;;;;8.77;5.03;;;7.30;99.90;;;;;;5113171;28;20023;-42
2023/02/12 00:58:49;;;;;;;8.70;5.47;;;7.30;99.90;;;;;;5113221;28;20031;-41
2023/02/12 01:01:15;;;;;;;7.28;4.80;;;7.30;99.90;;;;;;5113333;28;20023;-43
2023/02/12 01:03:41;;;;;;;7.50;5.50;;;7.30;99.90;;;;;;5114201;28;20176;-41
2023/02/12 01:06:07;;;;;;;7.57;5.35;;;7.50;99.90;;;;;;5115288;28;20355;-40
2023/02/12 01:08:32;;;;;;;8.80;5.22;;;7.70;99.90;;;;;;5113305;28;20023;-39
2023/02/12 01:11:01;;;;;;;9.30;5.55;;;7.80;99.90;;;;;;5114343;28;20073;-38
2023/02/12 01:13:29;;;;;;;7.40;5.32;;;7.90;99.90;;;;;;5113818;27;20063;-41
2023/02/12 01:16:22;;;;;;;7.63;4.90;;;7.90;99.90;;;;;;5112860;28;20024;-40
2023/02/12 01:18:48;;;;;;;6.20;4.28;;;7.90;99.90;;;;;;5111290;28;20444;-34
2023/02/12 01:21:20;;;;;;;7.18;5.13;;;7.80;99.90;;;;;;5113356;28;20047;-33
2023/02/12 01:23:46;;;;;;;7.60;5.28;;;7.70;99.90;;;;;;5113538;28;20046;-32
2023/02/12 01:26:13;;;;;;;7.97;4.82;;;7.70;99.90;;;;;;5113540;28;20031;-37
2023/02/12 01:28:40;;;;;;;7.32;5.10;;;7.60;99.90;;;;;;5113214;28;20031;-35
2023/02/12 01:31:15;;;;;;;7.82;4.68;;;7.50;99.90;;;;;;5112805;28;20401;-42
2023/02/12 01:33:42;;;;;;;7.75;4.90;;;7.50;99.90;;;;;;5113110;28;20114;-39
2023/02/12 01:36:09;;;;;;;7.93;5.07;;;7.40;99.90;;;;;;5112664;27;20036;-39
2023/02/12 01:38:35;;;;;;;6.38;4.70;;;7.40;99.90;;;;;;5113916;28;20114;-38
2023/02/12 01:41:20;;;;;;;7.07;4.93;;;7.40;99.90;;;;;;5111354;28;20115;-41
2023/02/12 01:44:11;;;;;;;8.38;5.00;;;7.40;99.90;;;;;;5112627;28;20492;-42
2023/02/12 01:46:37;;;;;;;7.40;5.25;;;7.30;99.90;;;;;;5112890;28;20366;-38
2023/02/12 01:49:07;;;;;;;6.85;4.70;;;7.30;99.90;;;;;;5112517;28;20028;-40
2023/02/12 01:51:33;;;;;;;8.32;5.30;;;7.30;99.90;;;;;;5111620;28;20076;-41
2023/02/12 01:54:03;;;;;;;7.40;4.97;;;7.30;99.90;;;;;;5112497;28;20366;-39
2023/02/12 01:56:30;;;;;;;7.18;4.75;;;7.30;99.90;;;;;;5111984;28;20028;-41
2023/02/12 01:58:56;;;;;;;7.30;5.50;;;7.30;99.90;;;;;;5112311;28;20057;-43
2023/02/12 02:01:26;;;;;;;8.35;5.13;;;7.30;99.90;;;;;;5112292;27;20393;-38
2023/02/12 02:03:56;;;;;;;9.93;5.70;;;7.30;99.90;;;;;;5112160;28;20465;-40
2023/02/12 02:06:26;;;;;;;7.55;4.78;;;7.50;99.90;;;;;;5112228;28;20032;-38
2023/02/12 02:08:54;;;;;;;7.22;4.78;;;7.70;99.90;;;;;;5111034;28;20397;-39
2023/02/12 02:17:03;;;;;;;8.07;4.43;;;7.90;99.90;;;;;;5112276;28;20084;-41
2023/02/12 02:19:50;;;;;;;8.07;4.75;;;7.80;99.90;;;;;;5112857;28;20024;-40
2023/02/12 02:22:37;;;;;;;6.88;4.63;;;7.70;99.90;;;;;;5112960;28;20019;-43
2023/02/12 02:25:16;;;;;;;7.45;4.85;;;7.70;99.90;;;;;;5111564;28;20026;-41
2023/02/12 02:28:12;;;;;;;9.38;5.22;;;7.60;99.90;;;;;;5113022;28;20024;-42
2023/02/12 02:31:08;;;;;;;6.90;4.97;;;7.60;99.90;;;;;;5112822;28;20022;-32
2023/02/12 02:34:05;;;;;;;6.18;4.40;;;7.50;99.90;;;;;;5112024;28;20023;-32
2023/02/12 02:36:40;;;;;;;7.82;5.13;;;7.40;99.90;;;;;;5095536;28;20035;-34
2023/02/12 02:39:38;;;;;;;9.65;5.07;;;7.40;99.90;;;;;;5111733;28;20032;-34
2023/02/12 02:42:04;;;;;;;6.97;4.88;;;7.30;99.90;;;;;;5112425;28;20039;-36
2023/02/12 02:44:47;;;;;;;8.40;5.03;;;7.30;99.90;;;;;;5116122;28;20019;-32
2023/02/12 02:47:16;;;;;;;6.55;4.70;;;7.30;99.90;;;;;;5115701;28;20051;-34
2023/02/12 02:49:48;;;;;;;6.75;4.32;;;7.30;99.90;;;;;;5115873;28;20028;-42
2023/02/12 02:52:22;;;;;;;7.03;4.97;;;7.30;99.90;;;;;;5115675;28;20554;-41
2023/02/12 02:54:53;;;;;;;8.05;4.78;;;7.30;99.90;;;;;;5115769;28;20110;-32
2023/02/12 02:57:29;;;;;;;8.98;4.70;;;7.20;99.90;;;;;;5115468;28;20024;-32
2023/02/12 03:00:04;;;;;;;8.07;5.03;;;7.30;99.90;;;;;;5114151;28;20043;-42
2023/02/12 03:02:37;;;;;;;5.90;4.22;;;7.20;99.90;;;;;;5115397;28;20035;-39
2023/02/12 03:05:08;;;;;;;6.40;4.40;;;7.30;99.90;;;;;;5115603;28;20558;-39
2023/02/12 03:07:40;;;;;;;7.43;4.85;;;7.60;99.90;;;;;;5115804;28;20493;-42
2023/02/12 03:10:15;;;;;;;7.20;4.40;;;7.80;99.90;;;;;;5116894;28;20023;-40
2023/02/12 03:12:56;;;;;;;7.10;4.65;;;7.90;99.90;;;;;;5117431;28;20026;-40
2023/02/12 03:15:39;;;;;;;5.93;4.35;;;8.00;99.90;;;;;;5115662;28;20031;-38
2023/02/12 03:18:11;;;;;;;7.57;4.60;;;7.90;99.90;;;;;;5116226;28;20378;-36
2023/02/12 03:20:44;;;;;;;7.05;4.63;;;7.90;99.90;;;;;;5117199;28;20541;-38
2023/02/12 03:23:15;;;;;;;5.97;4.40;;;7.80;99.90;;;;;;5116034;28;20035;-34
2023/02/12 03:25:58;;;;;;;8.35;4.80;;;7.70;99.90;;;;;;5115317;28;20373;-35
2023/02/12 03:28:30;;;;;;;9.20;4.85;;;7.60;99.90;;;;;;5115028;28;20034;-37
2023/02/12 03:31:08;;;;;;;8.05;5.30;;;7.60;99.90;;;;;;5116046;28;20031;-35
2023/02/12 03:33:52;;;;;;;6.63;4.50;;;7.50;99.90;;;;;;5114963;28;20420;-35
2023/02/12 03:36:39;;;;;;;8.98;4.75;;;7.50;99.90;;;;;;5117150;28;20031;-37
2023/02/12 03:39:19;;;;;;;7.93;4.82;;;7.40;99.90;;;;;;5115099;28;20026;-42
2023/02/12 03:41:48;;;;;;;9.57;4.95;;;7.40;99.90;;;;;;5114528;27;20114;-34
2023/02/12 03:44:17;;;;;;;7.55;4.65;;;7.40;99.90;;;;;;5115252;28;20038;-36
2023/02/12 03:46:55;;;;;;;7.70;4.97;;;7.30;99.90;;;;;;5115186;28;20478;-34
2023/02/12 03:49:30;;;;;;;8.40;4.82;;;7.30;99.90;;;;;;5114760;27;20493;-42
2023/02/12 03:51:57;;;;;;;7.32;4.68;;;7.30;99.90;;;;;;5114672;28;20019;-41
2023/02/12 03:54:23;;;;;;;7.95;5.10;;;7.30;99.90;;;;;;5115307;28;20026;-43
2023/02/12 03:57:02;;;;;;;6.97;4.95;;;7.30;99.90;;;;;;5116757;28;20106;-42
2023/02/12 03:59:28;;;;;;;8.02;5.18;;;7.20;99.90;;;;;;5115032;28;20047;-43
2023/02/12 04:01:58;;;;;;;8.20;4.82;;;7.20;99.90;;;;;;5114366;28;20023;-42
2023/02/12 04:04:25;;;;;;;6.50;4.45;;;7.30;99.90;;;;;;5114385;28;20015;-40
2023/02/12 04:06:52;;;;;;;9.00;5.18;;;7.40;99.90;;;;;;5114048;28;20397;-37
2023/02/12 04:09:18;;;;;;;6.88;4.65;;;7.70;99.90;;;;;;5116160;28;20111;-42
2023/02/12 04:12:17;;;;;;;6.93;4.68;;;7.90;99.90;;;;;;5116658;28;20048;-42
2023/02/12 04:14:47;;;;;;;5.50;4.13;;;7.90;99.90;;;;;;5114227;28;20077;-42
2023/02/12 04:17:35;;;;;;;7.35;4.82;;;7.90;99.90;;;;;;5114087;28;20012;-40
2023/02/12 04:20:34;;;;;;;8.68;5.00;;;7.80;99.90;;;;;;5115447;28;20055;-42
2023/02/12 04:23:44;;;;;;;7.82;4.80;;;7.80;99.90;;;;;;5114001;27;20520;-39
2023/02/12 04:26:17;;;;;;;8.10;4.97;;;7.70;99.90;;;;;;5114002;28;20364;-37
2023/02/12 04:29:06;;;;;;;8.63;5.13;;;7.60;99.90;;;;;;5115121;28;20031;-42
2023/02/12 04:31:54;;;;;;;8.43;5.45;;;7.50;99.90;;;;;;5113857;28;20082;-42
2023/02/12 04:34:31;;;;;;;7.18;5.40;;;7.50;99.90;;;;;;5115546;28;20115;-40
2023/02/12 04:37:11;;;;;;;7.32;4.80;;;7.40;99.90;;;;;;5113624;28;20399;-41
2023/02/12 04:39:39;;;;;;;6.53;4.88;;;7.40;99.90;;;;;;5115209;28;20037;-40
2023/02/12 04:42:05;;;;;;;6.90;4.95;;;7.40;99.90;;;;;;5113479;28;20023;-34
2023/02/12 04:44:36;;;;;;;8.00;5.20;;;7.40;99.90;;;;;;5115376;28;20110;-37
2023/02/12 04:47:01;;;;;;;7.25;5.05;;;7.30;99.90;;;;;;5114541;28;20051;-33
2023/02/12 04:49:27;;;;;;;6.55;4.63;;;7.30;99.90;;;;;;5113700;28;20058;-42
2023/02/12 04:51:53;;;;;;;6.90;4.68;;;7.30;99.90;;;;;;5113779;28;20028;-40
2023/02/12 04:54:20;;;;;;;7.80;5.32;;;7.30;99.90;;;;;;5113387;28;20068;-42
2023/02/12 04:56:46;;;;;;;7.45;5.30;;;7.20;99.90;;;;;;5112996;28;20451;-36
2023/02/12 04:59:13;;;;;;;7.80;4.88;;;7.20;99.90;;;;;;5112896;28;20055;-32
2023/02/12 05:01:39;;;;;;;6.65;4.85;;;7.20;99.90;;;;;;5114113;28;20397;-35
2023/02/12 05:04:06;;;;;;;7.22;4.93;;;7.20;99.90;;;;;;5112921;28;20123;-37
2023/02/12 05:06:35;;;;;;;8.15;4.63;;;7.40;99.90;;;;;;5112516;28;20024;-35
2023/02/12 05:09:01;;;;;;;7.93;4.93;;;7.60;99.90;;;;;;5113397;28;20031;-33
2023/02/12 05:11:26;;;;;;;7.78;5.05;;;7.90;99.90;;;;;;5115547;28;20397;-33
2023/02/12 05:13:53;;;;;;;6.45;4.43;;;7.90;99.90;;;;;;5113253;28;20035;-32
2023/02/12 05:16:20;;;;;;;8.32;4.72;;;7.90;99.90;;;;;;5114021;28;20027;-32
2023/02/12 05:18:46;;;;;;;7.13;4.65;;;7.90;99.90;;;;;;5113173;28;20100;-35
2023/02/12 05:21:12;;;;;;;5.43;4.18;;;7.80;99.90;;;;;;5112881;28;20023;-33
2023/02/12 05:23:39;;;;;;;7.55;4.63;;;7.70;99.90;;;;;;5113731;28;20061;-37
2023/02/12 05:26:10;;;;;;;6.70;5.00;;;7.70;99.90;;;;;;5114673;28;20031;-33
2023/02/12 05:28:35;;;;;;;6.60;4.55;;;7.60;99.90;;;;;;5096976;28;20020;-36
2023/02/12 05:31:03;;;;;;;6.63;4.38;;;7.50;99.90;;;;;;5113478;28;20077;-31
2023/02/12 05:33:29;;;;;;;8.38;5.15;;;7.50;99.90;;;;;;5112410;28;20027;-31
2023/02/12 05:35:55;;;;;;;7.97;5.05;;;7.40;99.90;;;;;;5112476;27;20027;-31
2023/02/12 05:38:21;;;;;;;6.38;4.78;;;7.40;99.90;;;;;;5112373;28;20038;-31
2023/02/12 05:40:47;;;;;;;6.55;4.60;;;7.40;99.90;;;;;;5111152;28;20058;-34
2023/02/12 05:43:12;;;;;;;7.32;5.15;;;7.40;99.90;;;;;;5112413;28;20055;-33
2023/02/12 05:45:40;;;;;;;6.82;4.97;;;7.30;99.90;;;;;;5112416;28;20020;-31
2023/02/12 05:48:06;;;;;;;8.32;5.30;;;7.30;99.90;;;;;;5112227;28;20020;-42
2023/02/12 05:50:32;;;;;;;7.50;4.88;;;7.30;99.90;;;;;;5112734;28;20373;-38
2023/02/12 05:52:59;;;;;;;7.35;5.28;;;7.30;99.90;;;;;;5112131;28;20031;-40
2023/02/12 05:55:25;;;;;;;8.40;4.88;;;7.20;99.90;;;;;;5113399;28;20116;-39
2023/02/12 05:57:51;;;;;;;6.82;4.88;;;7.20;99.90;;;;;;5112870;28;20027;-40
2023/02/12 06:00:17;;;;;;;6.95;4.95;;;7.20;99.90;;;;;;5113356;28;20037;-37
2023/02/12 06:02:42;;;;;;;6.38;4.80;;;7.20;99.90;;;;;;5112581;28;20027;-41
2023/02/12 06:05:08;;;;;;;7.32;4.97;;;7.30;99.90;;;;;;5112124;28;20041;-42
2023/02/12 06:07:34;;;;;;;7.38;4.95;;;7.50;99.90;;;;;;5112643;28;20106;-41
2023/02/12 06:09:59;;;;;;;8.00;5.45;;;7.70;99.90;;;;;;5111969;28;20053;-38
2023/02/12 06:12:25;;;;;;;7.50;5.15;;;7.90;99.90;;;;;;5112036;28;20068;-42
2023/02/12 06:14:50;;;;;;;7.03;4.85;;;7.90;99.90;;;;;;5111970;28;20027;-41
2023/02/12 06:17:16;;;;;;;6.97;5.20;;;7.90;99.90;;;;;;5110941;28;20034;-40
2023/02/12 06:19:41;;;;;;;7.82;5.10;;;7.80;99.90;;;;;;5112226;28;20019;-38
2023/02/12 06:22:07;;;;;;;6.82;4.95;;;7.80;99.90;;;;;;5111703;28;20035;-37
2023/02/12 06:24:33;;;;;;;7.25;5.05;;;7.70;99.90;;;;;;5112804;28;20038;-40
2023/02/12 06:26:59;;;;;;;6.97;4.90;;;7.60;99.90;;;;;;5112450;28;20034;-41
2023/02/12 06:29:24;;;;;;;7.72;5.00;;;7.60;99.90;;;;;;5111668;28;20125;-39
2023/02/12 06:31:50;;;;;;;7.20;5.07;;;7.50;99.90;;;;;;5111837;28;20012;-42
2023/02/12 06:34:17;;;;;;;7.63;4.68;;;7.50;99.90;;;;;;5113219;28;20385;-33
2023/02/12 06:36:44;;;;;;;7.20;5.20;;;7.40;99.90;;;;;;5113242;28;20019;-34
2023/02/12 06:39:11;;;;;;;7.75;5.38;;;7.40;99.90;;;;;;5113605;28;20099;-31
2023/02/12 06:41:36;;;;;;;7.82;5.15;;;7.30;99.90;;;;;;5112491;28;20427;-31
2023/02/12 06:44:03;;;;;;;8.93;5.38;;;7.30;99.90;;;;;;5111570;28;20028;-31
2023/02/12 06:46:29;;;;;;;10.25;5.85;;;7.30;99.90;;;;;;5111417;28;20056;-35
2023/02/12 06:48:57;;;;;;;9.07;6.07;;;7.30;99.90;;;;;;5111638;28;20059;-37
2023/02/12 06:51:24;;;;;;;7.68;5.50;;;7.20;99.90;;;;;;5111513;28;20016;-39
2023/02/12 06:53:51;;;;;;;9.00;5.90;;;7.20;99.90;;;;;;5112062;28;20045;-39
2023/02/12 06:56:18;;;;;;;6.88;5.30;;;7.20;99.90;;;;;;5111200;28;20024;-37
2023/02/12 06:58:46;;;;;;;8.40;5.38;;;7.20;99.90;;;;;;5111335;28;20080;-41
2023/02/12 07:01:21;;;;;;;9.68;5.65;;;7.20;99.90;;;;;;5112602;28;20032;-33
2023/02/12 07:04:01;;;;;;;7.70;5.32;;;7.20;99.90;;;;;;5112489;28;20118;-32
2023/02/12 07:06:28;;;;;;;8.07;5.82;;;7.30;99.90;;;;;;5111684;28;20441;-42
2023/02/12 07:08:54;;;;;;;9.55;5.50;;;7.60;99.90;;;;;;5111275;28;20034;-39
2023/02/12 07:11:29;;;;;;;7.45;5.03;;;7.70;99.90;;;;;;5110233;28;20067;-40
2023/02/12 07:13:54;;;;;;;7.72;5.00;;;7.70;99.90;;;;;;5112594;28;20039;-41
2023/02/12 07:16:20;;;;;;;8.82;5.68;;;7.80;99.90;;;;;;5111578;28;20020;-39
2023/02/12 07:18:46;;;;;;;8.93;5.78;;;7.70;99.90;;;;;;5111481;28;20027;-38
2023/02/12 07:21:13;;;;;;;8.57;5.47;;;7.70;99.90;;;;;;5111089;28;20378;-41
2023/02/12 07:23:39;;;;;;;9.38;5.90;;;7.60;99.90;;;;;;5110919;28;20059;-41
2023/02/12 07:26:11;;;;;;;8.73;5.75;;;7.50;99.90;;;;;;5111121;28;20466;-39
2023/02/12 07:28:37;;;;;;;9.55;5.75;;;7.50;99.90;;;;;;5114897;28;20024;-41
2023/02/12 07:31:10;;;;;;;7.85;5.18;;;7.40;99.90;;;;;;5115019;28;20027;-34
2023/02/12 07:33:37;;;;;;;8.32;5.63;;;7.40;99.90;;;;;;5113890;28;20016;-36
2023/02/12 07:36:04;;;;;;;7.93;5.50;;;7.40;99.90;;;;;;5115396;27;20027;-33
2023/02/12 07:38:30;;;;;;;8.93;5.82;;;7.30;99.90;;;;;;5116221;28;20031;-41
2023/02/12 07:41:05;;;;;;;12.23;6.53;;;7.30;99.90;;;;;;5116764;28;20024;-38
2023/02/12 07:43:31;;;;;;;8.52;5.63;;;7.30;99.90;;;;;;5114794;28;20465;-38
2023/02/12 07:46:07;;;;;;;9.30;5.20;;;7.30;99.90;;;;;;5115018;28;20132;-39
2023/02/12 07:48:33;;;;;;;9.25;5.88;;;7.20;99.90;;;;;;5116042;28;20015;-40
2023/02/12 07:51:06;;;;;;;7.38;5.68;;;7.20;99.90;;;;;;5115063;28;20027;-39
2023/02/12 07:53:32;;;;;;;8.43;6.18;;;7.20;99.90;;;;;;5115449;28;20028;-40
2023/02/12 07:56:08;;;;;;;9.00;6.28;;;7.20;99.90;;;;;;5114459;28;20027;-40
2023/02/12 07:58:34;;;;;;;11.98;6.32;;;7.20;99.90;;;;;;5114372;28;20072;-42
2023/02/12 08:01:09;;;;;;;8.73;5.72;;;7.20;99.90;;;;;;5114456;28;20035;-33
2023/02/12 08:03:35;;;;;;;7.63;5.82;;;7.20;99.90;;;;;;5114554;28;20093;-32
2023/02/12 08:06:09;;;;;;;9.25;6.85;;;7.10;99.90;;;;;;5114154;28;20024;-31
2023/02/12 08:08:37;;;;;;;7.75;5.88;;;7.10;99.90;;;;;;5114674;28;20020;-34
2023/02/12 08:11:07;;;;;;;9.00;5.90;;;7.20;99.90;;;;;;5114652;28;20098;-34
2023/02/12 08:13:35;;;;;;;10.98;5.95;;;7.10;99.90;;;;;;5114576;28;20032;-32
2023/02/12 08:16:23;;;;;;;9.18;6.15;;;7.20;99.90;;;;;;5115502;28;20077;-32
2023/02/12 08:18:49;;;;;;;7.80;5.70;;;7.20;99.90;;;;;;5114751;28;20103;-36
2023/02/12 08:21:21;;;;;;;8.45;6.05;;;7.10;99.90;;;;;;5115097;28;20477;-31
2023/02/12 08:23:50;;;;;;;8.20;5.18;;;7.10;99.90;;;;;;5113193;28;20135;-37
2023/02/12 08:26:21;;;;;;;8.82;5.72;;;7.10;99.90;;;;;;5114300;28;20081;-35
2023/02/12 08:28:51;;;;;;;12.30;6.20;;;7.10;99.90;;;;;;5113993;28;20426;-31
2023/02/12 08:31:20;;;;;;;9.98;5.70;;;7.10;99.90;;;;;;5112355;28;20358;-32
2023/02/12 08:33:48;;;;;;;9.82;5.43;;;7.10;99.90;;;;;;5114763;27;20024;-31
2023/02/12 08:36:16;;;;;;;10.30;5.85;;;7.10;99.90;;;;;;5113705;28;20027;-32
2023/02/12 08:38:43;;;;;;;8.95;5.88;;;7.10;99.90;;;;;;5114527;28;20516;-32
2023/02/12 08:41:11;;;;;;;8.43;5.55;;;7.10;99.90;;;;;;5113132;28;20027;-36
2023/02/12 08:43:38;;;;;;;10.32;6.13;;;7.10;99.90;;;;;;5112441;28;20148;-33
2023/02/12 08:46:12;;;;;;;10.82;6.32;;;7.10;99.90;;;;;;5113413;28;20051;-32
2023/02/12 08:48:40;;;;;;;10.15;6.50;;;7.10;99.90;;;;;;5113814;28;20028;-33
2023/02/12 08:51:12;;;;;;;8.35;5.63;;;7.10;99.90;;;;;;5112858;28;20474;-31
2023/02/12 08:53:39;;;;;;;8.05;6.10;;;7.20;99.90;;;;;;5112575;28;20031;-34
2023/02/12 08:56:06;;;;;;;10.63;6.20;;;7.20;99.90;;;;;;5113304;28;20019;-34
2023/02/12 08:58:32;;;;;;;9.05;6.35;;;7.10;99.90;;;;;;5113107;28;20051;-38
2023/02/12 09:00:58;;;;;;;9.50;6.43;;;7.20;99.90;;;;;;5113608;28;20036;-36
2023/02/12 09:03:24;;;;;;;9.75;6.32;;;7.10;99.90;;;;;;5113434;28;20481;-31
2023/02/12 09:05:49;;;;;;;9.05;6.57;;;7.10;99.90;;;;;;5112140;28;20099;-31
2023/02/12 09:08:15;;;;;;;9.10;6.30;;;7.10;99.90;;;;;;5113362;28;20073;-34
2023/02/12 09:10:42;;;;;;;8.65;6.30;;;7.10;99.90;;;;;;5113742;28;20023;-36
2023/02/12 09:13:10;;;;;;;10.32;6.32;;;7.20;99.90;;;;;;5111878;28;20028;-34
2023/02/12 09:15:38;;;;;;;10.27;6.55;;;7.10;99.90;;;;;;5113301;28;20020;-35
2023/02/12 09:18:04;;;;;;;10.35;6.22;;;7.10;99.90;;;;;;5113415;28;20452;-31
2023/02/12 09:20:30;;;;;;;9.82;6.57;;;7.10;99.90;;;;;;5113158;28;20027;-31
2023/02/12 09:22:58;;;;;;;11.43;6.93;;;7.10;99.90;;;;;;5113912;28;20045;-32
2023/02/12 09:25:24;;;;;;;9.65;6.45;;;7.10;99.90;;;;;;5112899;28;20015;-33
2023/02/12 09:27:49;;;;;;;10.13;6.47;;;7.10;99.90;;;;;;5113302;28;20098;-32
2023/02/12 09:30:15;;;;;;;10.75;7.10;;;7.10;99.90;;;;;;5113229;28;20420;-39
2023/02/12 09:32:41;;;;;;;14.45;8.15;;;7.10;99.90;;;;;;5113019;28;20384;-36
2023/02/12 09:35:07;;;;;;;11.07;7.30;;;7.10;99.90;;;;;;5111528;28;20024;-35
2023/02/12 09:37:32;;;;;;;10.68;7.38;;;7.10;99.90;;;;;;5113165;28;20068;-33
2023/02/12 09:39:58;;;;;;;11.80;7.43;;;7.10;99.90;;;;;;5113094;28;20373;-33
2023/02/12 09:42:51;;;;;;;10.93;7.18;;;7.10;99.90;;;;;;5112495;28;20028;-35
2023/02/12 09:45:22;;;;;;;11.85;6.93;;;7.10;99.90;;;;;;5112573;28;20016;-31
2023/02/12 09:47:52;;;;;;;10.68;6.82;;;7.10;99.90;;;;;;5112476;28;20044;-34
2023/02/12 09:50:35;;;;;;;10.90;7.35;;;7.10;99.90;;;;;;5112581;28;20046;-31
2023/02/12 09:53:01;;;;;;;11.68;7.47;;;7.10;99.90;;;;;;5111207;28;20031;-32
2023/02/12 09:55:31;;;;;;;12.40;7.32;;;7.20;99.90;;;;;;5112578;28;20030;-33
2023/02/12 09:58:00;;;;;;;9.75;7.15;;;7.10;99.90;;;;;;5112563;28;20012;-33
2023/02/12 10:00:30;;;;;;;10.77;6.95;;;7.20;99.90;;;;;;5112192;28;20024;-31
2023/02/12 10:03:01;;;;;;;11.27;7.43;;;7.10;99.90;;;;;;5112005;28;20019;-35
2023/02/12 10:05:34;;;;;;;9.98;7.20;;;7.20;99.90;;;;;;5110878;28;20473;-37
2023/02/12 10:08:21;;;;;;;12.15;7.78;;;7.20;99.90;;;;;;5112147;28;20083;-34
2023/02/12 10:10:57;;;;;;;10.20;7.05;;;7.20;99.90;;;;;;5112309;28;20094;-35
2023/02/12 10:13:56;;;;;;;11.80;7.32;;;7.20;99.90;;;;;;5111030;28;20035;-32
2023/02/12 10:16:52;;;;;;;11.07;6.63;;;7.20;99.90;;;;;;5112015;28;20072;-32
2023/02/12 10:19:36;;;;;;;11.40;7.35;;;7.20;99.90;;;;;;5111042;28;20118;-35
2023/02/12 10:22:27;;;;;;;11.00;7.00;;;7.20;99.90;;;;;;5111895;28;20024;-35
2023/02/12 10:25:14;;;;;;;10.82;6.75;;;7.20;99.90;;;;;;5111999;28;20261;-33
2023/02/12 10:27:47;;;;;;;9.98;7.03;;;7.20;99.90;;;;;;5110508;28;20028;-33
2023/02/12 10:30:29;;;;;;;10.85;6.85;;;7.20;99.90;;;;;;5112163;28;20019;-35
2023/02/12 10:33:03;;;;;;;10.50;6.93;;;7.20;99.90;;;;;;5111987;28;20024;-37
2023/02/12 10:35:30;;;;;;;9.60;6.55;;;7.20;99.90;;;;;;5110649;28;20036;-33
2023/02/12 10:38:27;;;;;;;9.52;7.07;;;7.20;99.90;;;;;;5111576;28;20035;-33
2023/02/12 10:40:56;;;;;;;9.93;6.57;;;7.20;99.90;;;;;;5111964;28;20032;-34
2023/02/12 10:43:22;;;;;;;10.75;6.80;;;7.20;99.90;;;;;;5111735;28;20485;-36
2023/02/12 10:45:49;;;;;;;10.15;6.75;;;7.20;99.90;;;;;;5111698;28;20110;-37
2023/02/12 10:48:22;;;;;;;11.75;6.97;;;7.20;99.90;;;;;;5111527;28;20016;-36
2023/02/12 10:51:04;;;;;;;9.95;6.72;;;7.30;99.90;;;;;;5112204;28;20122;-36
2023/02/12 10:53:35;;;;;;;10.68;6.80;;;7.20;99.90;;;;;;5112379;28;20028;-33
2023/02/12 10:56:07;;;;;;;9.32;6.95;;;7.20;99.90;;;;;;5111699;28;20111;-35
2023/02/12 10:58:32;;;;;;;9.38;6.55;;;7.30;99.90;;;;;;5111386;28;20032;-36
2023/02/12 11:00:59;;;;;;;8.20;5.93;;;7.30;99.90;;;;;;5111343;28;20046;-32
2023/02/12 11:03:37;;;;;;;10.70;6.50;;;7.30;99.90;;;;;;5113262;28;20019;-34
2023/02/12 11:06:15;;;;;;;9.52;6.30;;;7.30;99.90;;;;;;5116483;28;20015;-34
2023/02/12 11:08:41;;;;;;;9.70;6.75;;;7.30;99.90;;;;;;5116337;28;20098;-33
2023/02/12 11:11:17;;;;;;;8.27;6.22;;;7.30;99.90;;;;;;5115262;28;20114;-35
2023/02/12 11:14:10;;;;;;;8.75;5.72;;;7.30;99.90;;;;;;5115433;28;20024;-33
2023/02/12 11:16:50;;;;;;;9.93;6.30;;;7.30;99.90;;;;;;5116160;27;20068;-34
2023/02/12 11:19:25;;;;;;;8.50;6.32;;;7.30;99.90;;;;;;5115418;28;20031;-31
2023/02/12 11:21:51;;;;;;;8.73;5.53;;;7.30;99.90;;;;;;5115269;28;20036;-32
2023/02/12 11:24:29;;;;;;;7.85;5.60;;;7.30;99.90;;;;;;5115148;28;20031;-31
2023/02/12 11:27:19;;;;;;;8.05;5.30;;;7.30;99.90;;;;;;5115329;28;20031;-31
2023/02/12 11:29:50;;;;;;;8.20;5.57;;;7.30;99.90;;;;;;5116137;28;20126;-34
2023/02/12 11:32:18;;;;;;;7.28;5.47;;;7.30;99.90;;;;;;5116450;28;20019;-36
2023/02/12 11:35:10;;;;;;;8.95;5.60;;;7.30;99.90;;;;;;5115112;27;20496;-40
2023/02/12 11:37:40;;;;;;;9.63;5.80;;;7.30;99.90;;;;;;5114828;28;20028;-40
2023/02/12 11:40:12;;;;;;;7.85;4.97;;;7.30;99.90;;;;;;5115531;28;20084;-38
2023/02/12 11:42:40;;;;;;;7.60;5.65;;;7.40;99.90;;;;;;5115979;28;20040;-40
2023/02/12 11:45:15;;;;;;;7.55;5.25;;;7.40;99.90;;;;;;5114928;28;20524;-34
2023/02/12 11:47:41;;;;;;;8.80;5.47;;;7.40;99.90;;;;;;5115493;28;20035;-33
2023/02/12 11:50:24;;;;;;;6.68;5.07;;;7.40;99.90;;;;;;5115218;28;20092;-33
2023/02/12 11:52:52;;;;;;;7.32;5.18;;;7.40;99.90;;;;;;5114574;28;20384;-35
2023/02/12 11:55:28;;;;;;;8.38;5.38;;;7.40;99.90;;;;;;5115202;28;20099;-33
2023/02/12 11:58:02;;;;;;;6.93;4.93;;;7.40;99.90;;;;;;5115208;28;20023;-42
2023/02/12 12:00:34;;;;;;;6.57;4.75;;;7.40;99.90;;;;;;5115338;28;20039;-41
2023/02/12 12:03:15;;;;;;;6.95;4.82;;;7.40;99.90;;;;;;5114964;28;20024;-40
2023/02/12 12:05:52;;;;;;;7.97;5.07;;;7.40;99.90;;;;;;5114401;28;20046;-42
2023/02/12 12:08:43;;;;;;;7.75;5.03;;;7.40;99.90;;;;;;5116294;28;20387;-39
2023/02/12 12:11:15;;;;;;;6.55;4.70;;;7.40;99.90;;;;;;5082385;28;20028;-42
2023/02/12 12:14:10;;;;;;;7.65;4.95;;;7.40;99.90;;;;;;5114299;28;20439;-41
2023/02/12 12:20:03;;;;;;;8.60;4.65;;;7.40;99.90;;;;;;5114541;28;20035;-32
2023/02/12 12:22:59;;;;;;;7.22;4.63;;;7.50;99.90;;;;;;5115113;28;20544;-34
2023/02/12 12:25:50;;;;;;;6.45;4.05;;;7.40;99.90;;;;;;5114708;28;20028;-33
2023/02/12 12:28:31;;;;;;;6.53;4.47;;;7.50;99.90;;;;;;5113496;28;20497;-37
2023/02/12 12:31:18;;;;;;;6.25;4.53;;;7.40;99.90;;;;;;5113942;28;20477;-42
2023/02/12 12:33:48;;;;;;;6.80;4.68;;;7.40;99.90;;;;;;5112674;28;20247;-40
2023/02/12 12:36:47;;;;;;;6.25;4.63;;;7.50;99.90;;;;;;5113709;28;20028;-39
2023/02/12 12:39:27;;;;;;;5.40;4.50;;;7.50;99.90;;;;;;5114831;28;20027;-40
2023/02/12 12:41:56;;;;;;;7.50;4.90;;;7.50;99.90;;;;;;5114051;28;20024;-41
2023/02/12 12:44:21;;;;;;;6.65;4.32;;;7.50;99.90;;;;;;5114494;28;20023;-32
2023/02/12 12:46:59;;;;;;;6.57;4.47;;;7.50;99.90;;;;;;5113386;28;20049;-32
2023/02/12 12:49:41;;;;;;;7.68;4.45;;;7.50;99.90;;;;;;5113626;28;20034;-36
2023/02/12 12:52:15;;;;;;;6.15;4.20;;;7.50;99.90;;;;;;5114081;27;20042;-33
2023/02/12 12:54:59;;;;;;;6.85;4.53;;;7.50;99.90;;;;;;5114215;28;20084;-33
2023/02/12 12:58:02;;;;;;;6.57;4.30;;;7.50;99.90;;;;;;5113214;28;20077;-35
2023/02/12 13:00:34;;;;;;;6.03;4.00;;;7.50;99.90;;;;;;5113181;28;20081;-32
2023/02/12 13:03:23;;;;;;;6.68;4.13;;;7.50;99.90;;;;;;5113294;28;20039;-31
2023/02/12 13:06:06;;;;;;;6.90;4.25;;;7.50;99.90;;;;;;5113462;28;20024;-33
2023/02/12 13:09:01;;;;;;;6.55;4.18;;;7.50;99.90;;;;;;5113289;28;20023;-34
2023/02/12 13:11:35;;;;;;;6.13;4.45;;;7.50;99.90;;;;;;5113084;28;20020;-31
2023/02/12 13:14:07;;;;;;;;;;;7.50;99.90;;;;;;5113841;28;20036;-38
2023/02/12 13:16:41;;;;;;;5.50;3.83;;;7.50;99.90;;;;;;5113201;28;19907;-42
2023/02/12 13:19:41;;;;;;;5.63;3.78;;;7.50;99.90;;;;;;5113523;28;20024;-41
2023/02/12 13:22:23;;;;;;;5.88;4.32;;;7.50;99.90;;;;;;5110429;28;20036;-42
2023/02/12 13:24:56;;;;;;;5.72;3.90;;;7.50;99.90;;;;;;5113549;28;20028;-40
2023/02/12 13:27:26;;;;;;;5.43;4.15;;;7.50;99.90;;;;;;5112432;28;20381;-38
2023/02/12 13:30:03;;;;;;;6.65;4.47;;;7.50;99.90;;;;;;5112940;28;20051;-42